Time;durP1;ratioP1;P1;durP2;ratioP2;P2;SDS_P1;SDS_P2;PMS_P1;PMS_P2;Temp;Humidity;BMP_temperature;BMP_pressure;BME280_temperature;BME280_humidity;BME280_pressure;Samples;Min_cycle;Max_cycle;Signal;HPM_P1;HPM_P2
2021/12/22 00:01:38;;;;;;;39.85;30.08;;;3.20;99.90;;;;;;5055756;28;20033;-59
2021/12/22 00:04:04;;;;;;;35.45;27.23;;;3.10;99.90;;;;;;5068055;28;20090;-58
2021/12/22 00:06:33;;;;;;;36.63;29.30;;;3.20;99.90;;;;;;5070647;28;20039;-58
2021/12/22 00:08:59;;;;;;;40.00;31.90;;;3.10;99.90;;;;;;5066522;28;20403;-58
2021/12/22 00:11:26;;;;;;;41.92;33.10;;;3.10;99.90;;;;;;5066335;28;20036;-58
2021/12/22 00:13:51;;;;;;;44.67;33.80;;;3.20;99.90;;;;;;5068700;28;20115;-59
2021/12/22 00:16:17;;;;;;;41.38;33.88;;;3.10;99.90;;;;;;5066989;28;20025;-58
2021/12/22 00:18:43;;;;;;;44.70;35.63;;;3.10;99.90;;;;;;5068552;28;20027;-58
2021/12/22 00:21:10;;;;;;;38.25;31.25;;;3.10;99.90;;;;;;5068332;28;20029;-59
2021/12/22 00:23:36;;;;;;;32.63;26.45;;;3.20;99.90;;;;;;5066642;28;20027;-57
2021/12/22 00:26:02;;;;;;;34.97;27.67;;;3.10;99.90;;;;;;5067772;28;20037;-58
2021/12/22 00:28:28;;;;;;;32.45;26.80;;;3.10;99.90;;;;;;5067168;28;20018;-58
2021/12/22 00:30:54;;;;;;;41.35;32.55;;;3.00;99.90;;;;;;5068906;28;20032;-58
2021/12/22 00:33:20;;;;;;;51.55;38.05;;;3.10;99.90;;;;;;5068859;28;20094;-59
2021/12/22 00:35:46;;;;;;;46.03;35.70;;;3.00;99.90;;;;;;5066831;28;20094;-58
2021/12/22 00:38:17;;;;;;;42.72;30.60;;;3.00;99.90;;;;;;5065982;28;20039;-58
2021/12/22 00:40:44;;;;;;;37.92;29.95;;;3.10;99.90;;;;;;5066553;28;20033;-58
2021/12/22 00:43:10;;;;;;;34.88;28.63;;;3.00;99.90;;;;;;5068426;28;20445;-59
2021/12/22 00:45:37;;;;;;;37.85;29.77;;;3.00;99.90;;;;;;5070783;28;20032;-58
2021/12/22 00:48:05;;;;;;;39.42;30.50;;;3.00;99.90;;;;;;5066837;28;20032;-59
2021/12/22 00:50:32;;;;;;;37.13;29.10;;;3.00;99.90;;;;;;5068101;28;20028;-58
2021/12/22 00:52:57;;;;;;;39.03;29.02;;;3.00;99.90;;;;;;5068183;28;20116;-58
2021/12/22 00:55:23;;;;;;;38.58;31.33;;;3.00;99.90;;;;;;5069385;28;20107;-58
2021/12/22 00:57:50;;;;;;;39.55;29.83;;;2.90;99.90;;;;;;5072715;28;20082;-59
2021/12/22 01:00:18;;;;;;;43.10;32.15;;;2.90;99.90;;;;;;5073681;28;20042;-58
2021/12/22 01:02:45;;;;;;;38.22;29.10;;;2.90;99.90;;;;;;5069901;28;20029;-58
2021/12/22 01:05:13;;;;;;;35.53;28.05;;;2.90;99.90;;;;;;5071097;28;20036;-59
2021/12/22 01:07:44;;;;;;;33.53;26.35;;;2.90;99.90;;;;;;5069602;28;20020;-58
2021/12/22 01:10:11;;;;;;;36.10;28.42;;;3.00;99.90;;;;;;5053966;28;20029;-57
2021/12/22 01:12:38;;;;;;;36.53;28.80;;;3.00;99.90;;;;;;5074291;28;20062;-58
2021/12/22 01:15:06;;;;;;;39.35;29.52;;;3.10;99.90;;;;;;5069104;28;20402;-58
2021/12/22 01:17:38;;;;;;;36.78;28.25;;;2.90;99.90;;;;;;5069333;28;20029;-58
2021/12/22 01:20:12;;;;;;;40.47;29.23;;;2.90;99.90;;;;;;5070065;28;20527;-58
2021/12/22 01:25:08;;;;;;;33.85;26.38;;;2.90;99.90;;;;;;5070267;28;20037;-58
2021/12/22 01:27:40;;;;;;;31.15;25.52;;;3.00;99.90;;;;;;5073615;28;20469;-58
2021/12/22 01:30:26;;;;;;;34.10;27.45;;;3.10;99.90;;;;;;5071809;28;20032;-57
2021/12/22 01:32:59;;;;;;;35.05;28.65;;;2.90;99.90;;;;;;5071008;28;20079;-58
2021/12/22 01:35:29;;;;;;;32.30;23.33;;;2.90;99.90;;;;;;5069789;28;20021;-58
2021/12/22 01:37:55;;;;;;;30.70;24.52;;;3.20;99.90;;;;;;5070323;28;20059;-58
2021/12/22 01:40:22;;;;;;;32.72;25.70;;;3.00;99.90;;;;;;5069728;28;20044;-58
2021/12/22 01:42:49;;;;;;;30.17;24.83;;;3.00;99.90;;;;;;5072282;28;20033;-58
2021/12/22 01:45:53;;;;;;;29.08;24.23;;;3.00;99.90;;;;;;5072632;28;20051;-58
2021/12/22 01:51:26;;;;;;;30.40;25.08;;;3.00;99.90;;;;;;5071149;28;20044;-58
2021/12/22 01:53:56;;;;;;;33.95;25.63;;;3.00;99.90;;;;;;5068851;28;20548;-58
2021/12/22 01:56:25;;;;;;;32.20;24.88;;;3.00;99.90;;;;;;5068796;28;20032;-58
2021/12/22 01:58:57;;;;;;;29.33;24.30;;;3.00;99.90;;;;;;5069168;28;20039;-58
2021/12/22 02:01:23;;;;;;;30.45;23.75;;;3.00;99.90;;;;;;5070972;28;20056;-58
2021/12/22 02:03:51;;;;;;;29.75;24.27;;;3.00;99.90;;;;;;5071571;28;20021;-58
2021/12/22 02:06:18;;;;;;;30.98;24.38;;;3.00;99.90;;;;;;5070009;28;20033;-58
2021/12/22 02:08:45;;;;;;;30.40;23.27;;;2.90;99.90;;;;;;5070352;28;20460;-58
2021/12/22 02:11:14;;;;;;;26.02;22.30;;;2.90;99.90;;;;;;5070466;28;20031;-58
2021/12/22 02:13:43;;;;;;;26.25;21.90;;;3.00;99.90;;;;;;5069236;28;20078;-58
2021/12/22 02:16:12;;;;;;;27.20;21.08;;;3.00;99.90;;;;;;5054770;28;20029;-58
2021/12/22 02:18:45;;;;;;;25.48;21.48;;;3.10;99.90;;;;;;5068892;28;20089;-58
2021/12/22 02:21:12;;;;;;;27.98;22.27;;;3.10;99.90;;;;;;5069966;28;20499;-58
2021/12/22 02:23:41;;;;;;;29.48;22.92;;;3.00;99.90;;;;;;5070082;28;20039;-58
2021/12/22 02:26:21;;;;;;;27.70;22.25;;;2.90;99.90;;;;;;5068456;28;20017;-58
2021/12/22 02:28:56;;;;;;;30.83;23.50;;;2.90;99.90;;;;;;5068509;28;20081;-58
2021/12/22 02:31:21;;;;;;;26.55;22.00;;;2.90;99.90;;;;;;5068608;28;20483;-58
2021/12/22 02:33:50;;;;;;;27.13;22.00;;;3.00;99.90;;;;;;5070623;28;20056;-57
2021/12/22 02:38:44;;;;;;;26.58;21.30;;;3.00;99.90;;;;;;5068233;28;20036;-58
2021/12/22 02:41:13;;;;;;;33.03;24.05;;;2.90;99.90;;;;;;5070222;28;20038;-58
2021/12/22 02:43:52;;;;;;;30.77;21.90;;;2.90;99.90;;;;;;5068487;28;20020;-58
2021/12/22 02:46:22;;;;;;;32.03;22.85;;;2.90;99.90;;;;;;5055043;28;20099;-57
2021/12/22 02:48:48;;;;;;;31.50;23.17;;;2.90;99.90;;;;;;5070781;28;20020;-58
2021/12/22 02:51:14;;;;;;;33.72;24.17;;;2.90;99.90;;;;;;5070881;28;20137;-57
2021/12/22 02:53:45;;;;;;;33.60;23.42;;;2.90;99.90;;;;;;5068378;28;20086;-58
2021/12/22 03:04:10;;;;;;;30.58;26.23;;;2.90;99.90;;;;;;5069440;28;20115;-55
2021/12/22 03:06:44;;;;;;;25.92;21.50;;;3.10;99.90;;;;;;5067521;28;20035;-58
2021/12/22 03:09:28;;;;;;;25.27;20.73;;;3.10;99.90;;;;;;5068869;28;20491;-57
2021/12/22 03:11:57;;;;;;;22.63;19.45;;;3.00;99.90;;;;;;5067760;28;20028;-58
2021/12/22 03:14:23;;;;;;;22.75;19.52;;;3.10;99.90;;;;;;5067282;28;20030;-58
2021/12/22 03:16:51;;;;;;;28.05;19.40;;;3.00;99.90;;;;;;5067479;28;20056;-58
2021/12/22 03:19:20;;;;;;;23.73;18.63;;;2.90;99.90;;;;;;5069002;28;20032;-54
2021/12/22 03:21:47;;;;;;;24.85;20.05;;;3.00;99.90;;;;;;5070627;28;20012;-56
2021/12/22 03:24:14;;;;;;;24.88;20.05;;;2.80;99.90;;;;;;5070731;28;20060;-58
2021/12/22 03:26:44;;;;;;;24.77;20.75;;;2.80;99.90;;;;;;5068854;28;20055;-58
2021/12/22 03:29:14;;;;;;;24.05;20.20;;;2.80;99.90;;;;;;5068819;28;20028;-58
2021/12/22 03:31:41;;;;;;;29.52;22.85;;;2.70;99.90;;;;;;5067853;28;20099;-58
2021/12/22 03:34:08;;;;;;;28.15;24.27;;;2.70;99.90;;;;;;5069011;28;20064;-57
2021/12/22 03:36:35;;;;;;;31.05;25.08;;;2.70;99.90;;;;;;5071458;28;20398;-56
2021/12/22 03:39:02;;;;;;;30.60;25.35;;;2.70;99.90;;;;;;5067655;28;20700;-58
2021/12/22 03:41:28;;;;;;;30.55;23.90;;;2.60;99.90;;;;;;5069052;28;20031;-58
2021/12/22 03:43:53;;;;;;;29.77;23.10;;;2.50;99.90;;;;;;5067435;28;20036;-58
2021/12/22 03:46:19;;;;;;;26.08;22.17;;;2.50;99.90;;;;;;5067641;28;20025;-56
2021/12/22 03:48:45;;;;;;;31.92;24.65;;;2.40;99.90;;;;;;5070286;28;20035;-58
2021/12/22 03:51:10;;;;;;;33.03;24.15;;;2.40;99.90;;;;;;5068682;28;20020;-58
2021/12/22 03:53:36;;;;;;;28.33;22.90;;;2.40;99.90;;;;;;5067520;28;20040;-58
2021/12/22 03:56:03;;;;;;;27.67;21.15;;;2.30;99.90;;;;;;5067314;28;20021;-57
2021/12/22 03:58:29;;;;;;;27.60;21.05;;;2.30;99.90;;;;;;5068813;28;20482;-57
2021/12/22 04:00:56;;;;;;;26.95;21.77;;;2.30;99.90;;;;;;5069779;28;20024;-58
2021/12/22 04:03:25;;;;;;;26.63;21.55;;;2.50;99.90;;;;;;5069090;28;20086;-58
2021/12/22 04:05:51;;;;;;;25.33;20.20;;;2.50;99.90;;;;;;5068647;28;20032;-57
2021/12/22 04:08:18;;;;;;;28.05;21.88;;;2.60;99.90;;;;;;5068577;28;20029;-57
2021/12/22 04:10:49;;;;;;;25.88;20.60;;;2.50;99.90;;;;;;5067308;28;20032;-56
2021/12/22 04:13:15;;;;;;;27.60;21.65;;;2.50;99.90;;;;;;5068935;28;20032;-58
2021/12/22 04:15:42;;;;;;;26.73;21.25;;;2.50;99.90;;;;;;5070893;28;20221;-55
2021/12/22 04:18:09;;;;;;;26.30;21.60;;;2.60;99.90;;;;;;5067730;28;20074;-58
2021/12/22 04:20:35;;;;;;;26.40;20.63;;;2.60;99.90;;;;;;5068574;28;20491;-58
2021/12/22 04:23:00;;;;;;;26.75;21.60;;;2.60;99.90;;;;;;5066924;28;20028;-58
2021/12/22 04:25:27;;;;;;;28.95;21.60;;;2.70;99.90;;;;;;5067208;28;20033;-58
2021/12/22 04:28:07;;;;;;;25.52;20.67;;;2.80;99.90;;;;;;5070462;28;20024;-57
2021/12/22 04:30:35;;;;;;;26.48;20.63;;;2.90;99.90;;;;;;5074395;28;20032;-57
2021/12/22 04:33:01;;;;;;;27.38;19.73;;;3.00;99.90;;;;;;5070456;28;20094;-58
2021/12/22 04:35:27;;;;;;;25.08;19.52;;;3.10;99.90;;;;;;5070783;28;20021;-58
2021/12/22 04:37:53;;;;;;;25.73;18.92;;;3.10;99.90;;;;;;5072315;28;20518;-57
2021/12/22 04:40:19;;;;;;;28.02;22.48;;;3.10;99.90;;;;;;5070928;28;20112;-57
2021/12/22 04:42:45;;;;;;;49.47;42.13;;;3.10;99.90;;;;;;5073607;28;20027;-57
2021/12/22 04:45:12;;;;;;;22.95;19.70;;;3.10;99.90;;;;;;5073072;28;20024;-58
2021/12/22 04:47:38;;;;;;;25.50;20.45;;;3.20;99.90;;;;;;5071721;28;20024;-58
2021/12/22 04:50:13;;;;;;;26.17;20.05;;;3.00;99.90;;;;;;5070339;28;20040;-57
2021/12/22 04:52:49;;;;;;;27.77;20.45;;;3.00;99.90;;;;;;5071919;28;20086;-58
2021/12/22 04:55:15;;;;;;;28.38;21.60;;;3.00;99.90;;;;;;5055184;28;20041;-57
2021/12/22 04:57:41;;;;;;;26.83;21.08;;;2.90;99.90;;;;;;5074155;28;20035;-58
2021/12/22 05:00:10;;;;;;;26.88;21.15;;;2.90;99.90;;;;;;5072110;28;20499;-58
2021/12/22 05:02:36;;;;;;;30.98;23.00;;;2.90;99.90;;;;;;5070193;28;20110;-58
2021/12/22 05:05:02;;;;;;;27.70;21.70;;;2.90;99.90;;;;;;5070287;28;20057;-58
2021/12/22 05:07:27;;;;;;;26.10;21.88;;;2.90;99.90;;;;;;5070181;28;20029;-55
2021/12/22 05:09:53;;;;;;;25.25;21.13;;;2.90;99.90;;;;;;5072509;28;20024;-58
2021/12/22 05:12:19;;;;;;;26.65;21.65;;;2.90;99.90;;;;;;5071850;28;20064;-58
2021/12/22 05:14:47;;;;;;;30.05;21.83;;;2.80;99.90;;;;;;5069575;28;20513;-57
2021/12/22 05:17:20;;;;;;;29.73;22.95;;;2.90;99.90;;;;;;5071826;28;20025;-57
2021/12/22 05:19:46;;;;;;;26.33;21.33;;;2.90;99.90;;;;;;5069735;28;20048;-57
2021/12/22 05:22:11;;;;;;;29.20;22.27;;;2.90;99.90;;;;;;5071775;28;20476;-58
2021/12/22 05:24:37;;;;;;;29.42;22.42;;;2.90;99.90;;;;;;5073988;28;20039;-58
2021/12/22 05:27:03;;;;;;;27.77;21.30;;;2.90;99.90;;;;;;5071070;28;20063;-57
2021/12/22 05:29:29;;;;;;;27.50;22.45;;;3.00;99.90;;;;;;5069904;28;20085;-58
2021/12/22 05:31:56;;;;;;;29.60;21.10;;;2.90;99.90;;;;;;5070937;28;20411;-58
2021/12/22 05:34:23;;;;;;;28.30;21.65;;;3.00;99.90;;;;;;5069904;28;20087;-58
2021/12/22 05:36:48;;;;;;;26.73;20.40;;;2.90;99.90;;;;;;5072334;28;20086;-59
2021/12/22 05:39:14;;;;;;;29.35;23.42;;;2.90;99.90;;;;;;5071963;28;20041;-58
2021/12/22 05:41:40;;;;;;;29.00;22.25;;;2.90;99.90;;;;;;5069599;28;20024;-58
2021/12/22 05:44:05;;;;;;;27.67;22.17;;;2.90;99.90;;;;;;5069292;28;20490;-57
2021/12/22 05:46:31;;;;;;;30.85;23.05;;;2.90;99.90;;;;;;5069487;28;20021;-58
2021/12/22 05:48:57;;;;;;;27.85;21.60;;;2.90;99.90;;;;;;5071279;28;20025;-58
2021/12/22 05:51:22;;;;;;;27.42;21.17;;;2.90;99.90;;;;;;5071547;28;20024;-57
2021/12/22 05:53:48;;;;;;;29.95;22.80;;;3.00;99.90;;;;;;5069527;28;20116;-57
2021/12/22 05:56:14;;;;;;;28.30;22.23;;;2.90;99.90;;;;;;5070706;28;20103;-57
2021/12/22 05:58:40;;;;;;;28.58;22.73;;;2.90;99.90;;;;;;5068951;28;20447;-58
2021/12/22 06:01:06;;;;;;;29.13;22.13;;;2.90;99.90;;;;;;5054385;28;20128;-58
2021/12/22 06:03:32;;;;;;;31.77;22.38;;;2.90;99.90;;;;;;5073586;28;20021;-58
2021/12/22 06:05:57;;;;;;;29.67;22.50;;;2.90;99.90;;;;;;5068029;28;20032;-58
2021/12/22 06:08:23;;;;;;;27.67;22.13;;;2.90;99.90;;;;;;5068149;28;20025;-56
2021/12/22 06:10:49;;;;;;;29.55;22.67;;;3.00;99.90;;;;;;5070084;28;20036;-59
2021/12/22 06:13:15;;;;;;;27.92;22.17;;;3.00;99.90;;;;;;5068447;28;20021;-58
2021/12/22 06:15:40;;;;;;;31.92;24.30;;;3.00;99.90;;;;;;5072141;28;20024;-56
2021/12/22 06:18:07;;;;;;;32.35;23.48;;;3.00;99.90;;;;;;5068485;28;20032;-57
2021/12/22 06:20:35;;;;;;;30.73;24.02;;;3.00;99.90;;;;;;5068760;28;20029;-59
2021/12/22 06:23:01;;;;;;;29.33;22.27;;;3.20;99.90;;;;;;5072499;28;20027;-56
2021/12/22 06:25:27;;;;;;;31.00;22.80;;;3.10;99.90;;;;;;5068555;28;20032;-57
2021/12/22 06:27:53;;;;;;;29.00;23.00;;;3.00;99.90;;;;;;5068349;28;20046;-55
2021/12/22 06:30:20;;;;;;;27.30;22.17;;;3.10;99.90;;;;;;5068491;28;20137;-58
2021/12/22 06:32:50;;;;;;;27.27;21.50;;;3.00;99.90;;;;;;5068104;28;20546;-58
2021/12/22 06:35:16;;;;;;;30.13;22.15;;;3.10;99.90;;;;;;5071138;28;20033;-56
2021/12/22 06:37:43;;;;;;;30.33;22.55;;;3.00;99.90;;;;;;5069521;28;20070;-56
2021/12/22 06:40:09;;;;;;;32.45;22.85;;;3.00;99.90;;;;;;5068234;28;20087;-58
2021/12/22 06:42:38;;;;;;;29.38;22.63;;;2.90;99.90;;;;;;5069754;28;20024;-58
2021/12/22 06:45:05;;;;;;;30.80;23.27;;;2.90;99.90;;;;;;5068259;28;20028;-57
2021/12/22 06:47:30;;;;;;;32.60;24.02;;;2.80;99.90;;;;;;5069746;28;20174;-57
2021/12/22 06:49:56;;;;;;;32.38;24.13;;;2.80;99.90;;;;;;5070796;28;20530;-57
2021/12/22 06:52:22;;;;;;;31.20;24.60;;;2.80;99.90;;;;;;5068602;28;20040;-58
2021/12/22 06:54:47;;;;;;;31.88;25.25;;;2.70;99.90;;;;;;5066986;28;20407;-57
2021/12/22 06:57:18;;;;;;;45.47;33.53;;;2.80;99.90;;;;;;5067741;28;20110;-58
2021/12/22 06:59:44;;;;;;;45.30;35.05;;;2.80;99.90;;;;;;5052871;28;20456;-57
2021/12/22 07:02:10;;;;;;;35.78;28.27;;;2.70;99.90;;;;;;5072240;28;20088;-58
2021/12/22 07:04:35;;;;;;;35.33;27.45;;;2.70;99.90;;;;;;5067840;28;20036;-57
2021/12/22 07:07:01;;;;;;;36.88;27.88;;;2.70;99.90;;;;;;5067631;28;20101;-56
2021/12/22 07:09:27;;;;;;;36.17;28.08;;;2.60;99.90;;;;;;5067819;28;20078;-58
2021/12/22 07:11:53;;;;;;;33.65;27.13;;;2.70;99.90;;;;;;5069039;28;20371;-56
2021/12/22 07:14:19;;;;;;;34.67;26.70;;;2.70;99.90;;;;;;5070336;28;20020;-58
2021/12/22 07:16:45;;;;;;;40.17;29.80;;;2.70;99.90;;;;;;5069525;28;20490;-57
2021/12/22 07:19:12;;;;;;;36.60;27.92;;;2.60;99.90;;;;;;5067510;28;20045;-58
2021/12/22 07:21:38;;;;;;;38.10;27.63;;;2.60;99.90;;;;;;5069532;28;20082;-58
2021/12/22 07:24:05;;;;;;;34.25;26.38;;;2.70;99.90;;;;;;5067626;28;20051;-57
2021/12/22 07:26:31;;;;;;;34.17;25.88;;;2.80;99.90;;;;;;5068939;28;27524;-56
2021/12/22 07:28:57;;;;;;;34.50;25.05;;;2.70;99.90;;;;;;5070357;28;20036;-57
2021/12/22 07:31:23;;;;;;;37.05;27.83;;;2.80;99.90;;;;;;5069107;28;20099;-56
2021/12/22 07:34:00;;;;;;;39.70;28.60;;;2.80;99.90;;;;;;5068746;28;20590;-57
2021/12/22 07:36:26;;;;;;;36.33;26.35;;;2.80;99.90;;;;;;5067330;28;20013;-58
2021/12/22 07:38:56;;;;;;;34.75;25.77;;;2.90;99.90;;;;;;5067267;28;20132;-57
2021/12/22 07:41:21;;;;;;;32.47;25.67;;;2.90;99.90;;;;;;5069597;28;20021;-57
2021/12/22 07:43:47;;;;;;;37.03;27.90;;;3.00;99.90;;;;;;5069177;28;20040;-56
2021/12/22 07:46:13;;;;;;;30.80;25.52;;;3.00;99.90;;;;;;5067334;28;20020;-55
2021/12/22 07:48:39;;;;;;;37.80;26.40;;;3.10;99.90;;;;;;5067364;28;20526;-57
2021/12/22 07:51:04;;;;;;;29.58;24.27;;;3.20;99.90;;;;;;5068834;28;20036;-56
2021/12/22 07:53:30;;;;;;;29.92;22.73;;;3.40;99.90;;;;;;5068175;28;20073;-58
2021/12/22 07:55:56;;;;;;;29.42;23.27;;;3.40;99.90;;;;;;5069769;28;20075;-58
2021/12/22 07:58:23;;;;;;;29.15;22.48;;;3.60;99.90;;;;;;5067319;28;20032;-56
2021/12/22 08:00:50;;;;;;;26.25;20.77;;;3.70;99.90;;;;;;5068763;28;20063;-58
2021/12/22 08:03:16;;;;;;;26.63;20.85;;;3.90;99.90;;;;;;5070192;28;20067;-59
2021/12/22 08:05:42;;;;;;;25.75;20.98;;;4.00;99.90;;;;;;5072390;28;20028;-58
2021/12/22 08:08:08;;;;;;;26.30;21.05;;;3.80;99.90;;;;;;5071766;28;20043;-57
2021/12/22 08:10:34;;;;;;;28.58;22.08;;;3.80;99.90;;;;;;5070948;28;20468;-58
2021/12/22 08:12:59;;;;;;;29.52;22.05;;;3.80;99.90;;;;;;5072862;28;20568;-57
2021/12/22 08:15:25;;;;;;;28.23;22.42;;;3.90;99.90;;;;;;5073338;28;20426;-53
2021/12/22 08:17:52;;;;;;;29.38;20.73;;;4.00;99.90;;;;;;5070978;28;20105;-57
2021/12/22 08:20:19;;;;;;;25.45;20.67;;;4.80;99.90;;;;;;5070874;28;20045;-55
2021/12/22 08:22:45;;;;;;;24.38;20.20;;;4.90;99.90;;;;;;5070824;28;20116;-57
2021/12/22 08:25:11;;;;;;;24.20;19.55;;;5.10;99.90;;;;;;5070861;28;20032;-57
2021/12/22 08:27:37;;;;;;;26.65;19.75;;;5.30;99.90;;;;;;5074906;28;20021;-58
2021/12/22 08:30:04;;;;;;;20.58;17.63;;;6.10;99.90;;;;;;5070520;28;20028;-58
2021/12/22 08:32:30;;;;;;;21.70;17.52;;;6.60;99.90;;;;;;5071890;28;20056;-57
2021/12/22 08:34:56;;;;;;;19.30;15.23;;;7.20;99.90;;;;;;5070812;28;20032;-57
2021/12/22 08:40:10;;;;;;;21.98;15.50;;;8.00;99.90;;;;;;5071852;28;20046;-57
2021/12/22 08:42:36;;;;;;;18.92;15.48;;;7.50;99.90;;;;;;5074425;28;20033;-58
2021/12/22 08:45:03;;;;;;;21.52;15.07;;;7.30;99.90;;;;;;5069874;28;20032;-58
2021/12/22 08:47:29;;;;;;;23.65;16.88;;;8.20;99.90;;;;;;5070252;28;20055;-57
2021/12/22 08:49:55;;;;;;;23.90;15.77;;;8.10;99.90;;;;;;5065757;28;20048;-57
2021/12/22 08:52:20;;;;;;;22.80;16.10;;;9.10;99.90;;;;;;5062485;28;20028;-56
2021/12/22 08:54:46;;;;;;;25.17;16.73;;;9.50;99.90;;;;;;5070259;28;20017;-53
2021/12/22 08:57:12;;;;;;;22.10;15.32;;;9.10;99.90;;;;;;5070199;28;20064;-55
2021/12/22 08:59:38;;;;;;;17.10;13.50;;;9.60;99.90;;;;;;5071340;28;20059;-56
2021/12/22 09:02:04;;;;;;;21.58;16.48;;;10.20;99.90;;;;;;5072048;28;20028;-57
2021/12/22 09:04:31;;;;;;;20.95;15.68;;;9.80;99.90;;;;;;5056219;28;20411;-50
2021/12/22 09:06:56;;;;;;;19.20;14.68;;;10.30;99.90;;;;;;5057319;28;20029;-52
2021/12/22 09:09:23;;;;;;;18.02;13.77;;;10.50;99.90;;;;;;5057620;28;20031;-52
2021/12/22 09:11:49;;;;;;;17.45;13.27;;;10.90;99.90;;;;;;5057062;28;20400;-56
2021/12/22 09:14:16;;;;;;;15.32;12.05;;;11.70;99.90;;;;;;5060409;28;20028;-52
2021/12/22 09:16:42;;;;;;;16.85;12.75;;;10.90;99.90;;;;;;5070592;28;20390;-56
2021/12/22 09:19:09;;;;;;;14.95;12.38;;;11.20;99.90;;;;;;5068349;28;20119;-55
2021/12/22 09:21:35;;;;;;;14.75;12.18;;;10.20;99.90;;;;;;5062622;28;20024;-52
2021/12/22 09:24:02;;;;;;;17.08;12.90;;;10.90;99.90;;;;;;5055418;28;20842;-58
2021/12/22 09:26:28;;;;;;;16.75;13.07;;;10.70;99.90;;;;;;5054119;28;20163;-57
2021/12/22 09:28:54;;;;;;;17.45;13.18;;;11.10;99.90;;;;;;5054686;28;20439;-57
2021/12/22 09:31:21;;;;;;;14.13;12.40;;;11.20;99.90;;;;;;5064323;28;20045;-57
2021/12/22 09:33:47;;;;;;;14.32;12.13;;;11.20;99.90;;;;;;5062986;28;20526;-58
2021/12/22 09:36:14;;;;;;;15.30;12.48;;;11.90;99.90;;;;;;5059923;28;20028;-58
2021/12/22 09:38:40;;;;;;;13.70;11.68;;;11.70;99.90;;;;;;5067477;28;20043;-58
2021/12/22 09:41:07;;;;;;;14.77;11.48;;;11.90;99.90;;;;;;5071300;28;20032;-58
2021/12/22 09:43:33;;;;;;;13.13;10.95;;;11.80;99.90;;;;;;5069490;28;20119;-57
2021/12/22 09:46:05;;;;;;;15.15;11.23;;;12.30;99.90;;;;;;5071517;28;20031;-57
2021/12/22 09:53:31;;;;;;;14.05;10.65;;;12.50;99.90;;;;;;5070651;28;20020;-59
2021/12/22 09:56:00;;;;;;;14.52;10.55;;;12.80;99.90;;;;;;5070533;28;20165;-64
2021/12/22 09:58:27;;;;;;;15.18;11.00;;;12.10;99.90;;;;;;5068840;28;20035;-59
2021/12/22 10:00:53;;;;;;;18.83;12.88;;;12.30;99.90;;;;;;5071299;28;20126;-57
2021/12/22 10:03:21;;;;;;;17.48;11.27;;;12.20;99.90;;;;;;5068901;28;20055;-58
2021/12/22 10:05:46;;;;;;;16.40;10.52;;;13.20;99.90;;;;;;5069786;28;20049;-59
2021/12/22 10:08:14;;;;;;;14.65;10.88;;;13.00;99.90;;;;;;5072322;28;20172;-58
2021/12/22 10:10:48;;;;;;;13.57;10.63;;;13.10;99.90;;;;;;5070909;28;20050;-58
2021/12/22 10:13:15;;;;;;;13.88;10.48;;;14.30;99.90;;;;;;5068759;28;20113;-59
2021/12/22 10:15:42;;;;;;;12.70;10.00;;;14.00;99.90;;;;;;5068545;28;20147;-58
2021/12/22 10:18:13;;;;;;;16.83;10.55;;;14.00;99.90;;;;;;5068876;28;20025;-58
2021/12/22 10:20:41;;;;;;;17.35;11.55;;;14.00;99.90;;;;;;5069073;28;20387;-58
2021/12/22 10:23:27;;;;;;;18.23;10.57;;;14.70;99.90;;;;;;5072165;28;20026;-58
2021/12/22 10:25:57;;;;;;;12.50;10.15;;;14.10;99.90;;;;;;5070418;28;20031;-58
2021/12/22 10:28:25;;;;;;;10.25;9.05;;;13.90;99.90;;;;;;5068405;28;20047;-57
2021/12/22 10:30:58;;;;;;;11.43;9.57;;;13.50;99.90;;;;;;5067060;28;20239;-59
2021/12/22 10:33:31;;;;;;;13.25;9.60;;;12.50;99.90;;;;;;5069220;28;20895;-52
2021/12/22 10:36:00;;;;;;;14.45;10.57;;;13.00;99.90;;;;;;5064621;28;20029;-56
2021/12/22 10:38:31;;;;;;;15.00;10.02;;;14.00;99.90;;;;;;5053080;28;20084;-57
2021/12/22 10:41:09;;;;;;;13.52;9.88;;;14.40;99.90;;;;;;5053626;28;20431;-55
2021/12/22 10:43:43;;;;;;;15.00;10.30;;;13.90;99.90;;;;;;5053124;28;20049;-56
2021/12/22 10:46:15;;;;;;;14.27;9.68;;;13.50;99.90;;;;;;5066603;28;20021;-55
2021/12/22 10:51:31;;;;;;;13.38;9.73;;;13.10;99.90;;;;;;5056898;28;20023;-56
2021/12/22 10:53:59;;;;;;;12.63;8.27;;;14.30;99.90;;;;;;5069382;28;20052;-57
2021/12/22 10:56:36;;;;;;;13.23;9.27;;;13.60;99.90;;;;;;5067097;28;20047;-57
2021/12/22 10:59:19;;;;;;;11.43;7.97;;;13.40;99.90;;;;;;5066568;28;20072;-55
2021/12/22 11:01:56;;;;;;;10.95;8.07;;;13.40;99.90;;;;;;5067022;28;20021;-56
2021/12/22 11:04:26;;;;;;;14.38;8.57;;;13.50;99.90;;;;;;5066737;28;20036;-56
2021/12/22 11:06:55;;;;;;;9.32;7.80;;;13.80;99.90;;;;;;5068086;28;20046;-55
2021/12/22 11:09:22;;;;;;;11.30;8.73;;;13.80;99.90;;;;;;5069599;28;20509;-57
2021/12/22 11:11:57;;;;;;;12.38;7.95;;;13.20;99.90;;;;;;5067828;28;20012;-55
2021/12/22 11:14:30;;;;;;;11.05;8.13;;;13.40;99.90;;;;;;5068651;28;20029;-56
2021/12/22 11:16:55;;;;;;;9.98;7.80;;;13.50;99.90;;;;;;5065415;28;20024;-56
2021/12/22 11:19:23;;;;;;;11.35;7.57;;;13.60;99.90;;;;;;5052932;28;20055;-56
2021/12/22 11:24:52;;;;;;;10.68;7.10;;;14.10;99.90;;;;;;5063994;28;20068;-55
2021/12/22 11:27:27;;;;;;;10.82;7.60;;;13.70;99.90;;;;;;5068764;28;20035;-56
2021/12/22 11:29:56;;;;;;;11.15;7.65;;;13.70;99.90;;;;;;5064338;28;20078;-56
2021/12/22 11:32:27;;;;;;;10.68;7.30;;;13.40;99.90;;;;;;5059780;28;20583;-57
2021/12/22 11:34:58;;;;;;;10.27;6.97;;;13.40;99.90;;;;;;5068997;28;20044;-56
2021/12/22 11:37:25;;;;;;;10.15;7.05;;;13.40;99.90;;;;;;5063348;28;20081;-56
2021/12/22 11:39:52;;;;;;;12.18;6.65;;;13.70;99.90;;;;;;5051919;28;20041;-57
2021/12/22 11:42:21;;;;;;;9.68;6.55;;;13.90;99.90;;;;;;5062602;28;20092;-54
2021/12/22 11:44:52;;;;;;;10.35;7.00;;;14.20;99.90;;;;;;5055547;28;20081;-58
2021/12/22 11:47:19;;;;;;;11.65;7.03;;;14.30;99.90;;;;;;5066610;28;20017;-55
2021/12/22 11:49:58;;;;;;;8.88;6.38;;;13.90;99.90;;;;;;5069910;28;20108;-56
2021/12/22 11:52:31;;;;;;;10.52;7.00;;;14.30;99.90;;;;;;5057075;28;20065;-55
2021/12/22 11:55:17;;;;;;;10.63;6.57;;;13.90;99.90;;;;;;5056867;28;20029;-55
2021/12/22 11:57:45;;;;;;;8.43;6.63;;;13.90;99.90;;;;;;5058520;28;20030;-55
2021/12/22 12:00:34;;;;;;;9.38;6.22;;;13.90;99.90;;;;;;5052708;28;20041;-54
2021/12/22 12:03:22;;;;;;;9.68;6.53;;;14.50;99.90;;;;;;5052016;28;20083;-54
2021/12/22 12:06:23;;;;;;;8.13;5.85;;;14.00;99.90;;;;;;5061635;28;20104;-56
2021/12/22 12:08:58;;;;;;;9.73;6.03;;;14.30;99.90;;;;;;5022492;28;20045;-54
2021/12/22 12:11:33;;;;;;;11.02;7.00;;;14.90;99.90;;;;;;5019834;28;20044;-55
2021/12/22 12:14:09;;;;;;;8.95;6.25;;;15.00;99.90;;;;;;5027299;28;20562;-56
2021/12/22 12:22:45;;;;;;;8.48;6.43;;;14.30;99.90;;;;;;5015563;28;20460;-58
2021/12/22 12:25:13;;;;;;;9.35;6.05;;;14.30;99.90;;;;;;5006900;28;20049;-58
2021/12/22 12:27:51;;;;;;;9.02;6.10;;;14.30;99.90;;;;;;5024647;28;20029;-57
2021/12/22 12:30:27;;;;;;;9.07;6.30;;;14.10;99.90;;;;;;5023564;28;20077;-58
2021/12/22 12:32:53;;;;;;;10.13;5.97;;;14.20;99.90;;;;;;5025253;28;20093;-57
2021/12/22 12:35:23;;;;;;;8.43;6.18;;;14.50;99.90;;;;;;5026704;28;20488;-56
2021/12/22 12:38:16;;;;;;;8.77;6.05;;;14.10;99.90;;;;;;5026751;28;20038;-57
2021/12/22 12:40:57;;;;;;;7.70;5.78;;;14.20;99.90;;;;;;5024578;28;20190;-55
2021/12/22 12:43:44;;;;;;;8.82;6.47;;;14.10;99.90;;;;;;5024521;28;20392;-56
2021/12/22 12:46:19;;;;;;;8.60;5.90;;;14.40;99.90;;;;;;5066564;28;20036;-56
2021/12/22 12:51:37;;;;;;;10.80;7.38;;;14.20;99.90;;;;;;5068179;28;20032;-57
2021/12/22 12:54:25;;;;;;;8.55;6.60;;;14.40;99.90;;;;;;5070451;28;20059;-57
2021/12/22 12:56:54;;;;;;;7.07;5.53;;;14.30;99.90;;;;;;5069540;28;20029;-58
2021/12/22 12:59:26;;;;;;;9.98;6.18;;;14.20;99.90;;;;;;5065966;28;20443;-58
2021/12/22 13:01:52;;;;;;;7.43;5.00;;;14.10;99.90;;;;;;5064451;28;20108;-57
2021/12/22 13:04:36;;;;;;;8.85;5.75;;;14.60;99.90;;;;;;5065285;28;20103;-53
2021/12/22 13:07:05;;;;;;;9.43;5.85;;;14.50;99.90;;;;;;5069823;28;20075;-58
2021/12/22 13:09:39;;;;;;;8.15;5.10;;;14.60;99.90;;;;;;5072808;28;20471;-58
2021/12/22 13:12:19;;;;;;;7.78;5.20;;;14.20;99.90;;;;;;5072653;28;20054;-57
2021/12/22 13:17:39;;;;;;;7.75;5.50;;;14.10;99.90;;;;;;5071063;28;20466;-58
2021/12/22 13:20:07;;;;;;;8.20;5.75;;;14.00;99.90;;;;;;5067934;28;20060;-58
2021/12/22 13:22:35;;;;;;;9.25;5.82;;;14.00;99.90;;;;;;5071280;28;20082;-57
2021/12/22 13:25:27;;;;;;;9.13;6.00;;;13.90;99.90;;;;;;5070682;28;20028;-59